createdAt,value
2019-04-21T00:02:32.439Z,14.10
2019-04-21T00:05:22.868Z,14.10
2019-04-21T00:07:54.207Z,14.10
2019-04-21T00:10:23.378Z,14.10
2019-04-21T00:12:47.462Z,14.10
2019-04-21T00:15:16.094Z,14.10
2019-04-21T00:17:34.754Z,14.10
2019-04-21T00:20:16.367Z,14.10
2019-04-21T00:22:48.082Z,14.10
2019-04-21T00:25:18.132Z,14.10
2019-04-21T00:27:51.629Z,14.10
2019-04-21T00:30:27.626Z,14.00
2019-04-21T00:32:52.412Z,14.00
2019-04-21T00:35:14.181Z,14.00
2019-04-21T00:38:02.300Z,14.00
2019-04-21T00:40:34.941Z,13.90
2019-04-21T00:43:01.059Z,13.90
2019-04-21T00:45:27.536Z,13.80
2019-04-21T00:48:03.954Z,13.80
2019-04-21T00:50:53.224Z,13.80
2019-04-21T00:53:13.065Z,13.70
2019-04-21T00:55:51.699Z,13.70
2019-04-21T00:58:22.452Z,13.70
2019-04-21T01:00:53.817Z,13.70
2019-04-21T01:03:26.679Z,13.70
2019-04-21T01:08:21.488Z,13.70
2019-04-21T01:10:49.223Z,13.70
2019-04-21T01:13:27.759Z,13.70
2019-04-21T01:15:59.769Z,13.70
2019-04-21T01:18:29.530Z,13.60
2019-04-21T01:20:37.040Z,13.70
2019-04-21T01:23:06.689Z,13.60
2019-04-21T01:26:09.227Z,13.60
2019-04-21T01:28:40.015Z,13.50
2019-04-21T01:31:15.380Z,13.50
2019-04-21T01:33:50.877Z,13.50
2019-04-21T01:36:14.004Z,13.50
2019-04-21T01:38:58.323Z,13.50
2019-04-21T01:41:29.265Z,13.40
2019-04-21T01:43:53.537Z,13.40
2019-04-21T01:46:19.455Z,13.40
2019-04-21T01:48:49.306Z,13.30
2019-04-21T01:51:23.610Z,13.30
2019-04-21T01:54:25.160Z,13.20
2019-04-21T01:57:05.635Z,13.00
2019-04-21T01:59:26.944Z,12.90
2019-04-21T02:02:06.457Z,12.90
2019-04-21T02:04:44.912Z,12.80
2019-04-21T02:07:09.873Z,12.70
2019-04-21T02:09:38.390Z,12.60
2019-04-21T02:12:13.470Z,12.50
2019-04-21T02:14:51.509Z,12.50
2019-04-21T02:17:14.782Z,12.40
2019-04-21T02:19:39.628Z,12.40
2019-04-21T02:22:10.719Z,12.30
2019-04-21T02:24:51.604Z,12.30
2019-04-21T02:27:22.240Z,12.20
2019-04-21T02:29:51.956Z,12.20
2019-04-21T02:32:33.407Z,12.10
2019-04-21T02:35:04.047Z,12.10
2019-04-21T02:40:04.964Z,12.10
2019-04-21T02:42:38.046Z,12.00
2019-04-21T02:44:59.882Z,11.90
2019-04-21T02:47:50.674Z,11.90
2019-04-21T02:55:11.729Z,11.60
2019-04-21T03:00:17.915Z,11.50
2019-04-21T03:03:00.227Z,11.40
2019-04-21T03:05:50.481Z,11.30
2019-04-21T03:13:21.819Z,11.10
2019-04-21T03:18:26.129Z,11.00
2019-04-21T03:21:00.697Z,10.90
2019-04-21T03:25:55.343Z,10.80
2019-04-21T03:33:58.789Z,10.70
2019-04-21T03:38:31.900Z,10.60
2019-04-21T03:40:57.337Z,10.50
2019-04-21T03:43:32.469Z,10.50
2019-04-21T03:50:56.384Z,10.40
2019-04-21T03:53:32.382Z,10.40
2019-04-21T03:58:47.480Z,10.30
2019-04-21T04:01:11.394Z,10.30
2019-04-21T04:06:43.048Z,10.20
2019-04-21T04:09:31.446Z,10.10
2019-04-21T04:12:01.117Z,10.10
2019-04-21T04:14:34.343Z,10.00
2019-04-21T04:17:06.113Z,10.00
2019-04-21T04:19:36.219Z,10.00
2019-04-21T04:22:04.239Z,9.90
2019-04-21T04:24:30.195Z,9.90
2019-04-21T04:29:31.402Z,9.80
2019-04-21T04:31:57.093Z,9.80
2019-04-21T04:37:12.238Z,9.80
2019-04-21T04:42:39.392Z,9.70
2019-04-21T04:47:24.317Z,9.70
2019-04-21T04:55:00.591Z,9.70
2019-04-21T05:00:15.510Z,9.70
2019-04-21T05:07:46.634Z,9.80
2019-04-21T05:10:29.834Z,9.80
2019-04-21T05:15:10.017Z,9.80
2019-04-21T05:18:04.659Z,9.80
2019-04-21T05:20:13.641Z,9.80
2019-04-21T05:22:42.690Z,9.80
2019-04-21T05:25:02.437Z,9.90
2019-04-21T05:27:30.734Z,9.90
2019-04-21T05:30:16.882Z,9.90
2019-04-21T05:33:06.927Z,10.00
2019-04-21T05:35:55.231Z,10.00
2019-04-21T05:38:29.082Z,10.00
2019-04-21T05:40:52.276Z,10.10
2019-04-21T05:43:32.520Z,10.10
2019-04-21T05:46:18.416Z,10.20
2019-04-21T05:48:46.904Z,10.20
2019-04-21T05:51:08.913Z,10.30
2019-04-21T05:53:48.238Z,10.40
2019-04-21T05:56:17.453Z,10.50
2019-04-21T05:59:02.082Z,10.50
2019-04-21T06:01:28.538Z,10.60
2019-04-21T06:06:28.940Z,10.70
2019-04-21T06:08:48.114Z,10.80
2019-04-21T06:11:25.893Z,10.90
2019-04-21T06:16:30.170Z,11.10
2019-04-21T06:19:00.695Z,11.10
2019-04-21T06:21:27.553Z,11.20
2019-04-21T06:23:57.571Z,11.30
2019-04-21T06:29:06.080Z,11.50
2019-04-21T06:34:04.850Z,11.70
2019-04-21T06:37:01.707Z,11.80
2019-04-21T06:39:22.848Z,11.90
2019-04-21T06:41:54.359Z,12.00
2019-04-21T06:44:22.735Z,12.10
2019-04-21T06:46:51.686Z,12.20
2019-04-21T06:49:27.484Z,12.30
2019-04-21T06:52:30.348Z,12.40
2019-04-21T06:56:58.667Z,12.70
2019-04-21T06:59:26.528Z,12.80
2019-04-21T07:04:36.475Z,13.10
2019-04-21T07:07:18.176Z,13.20
2019-04-21T07:09:36.474Z,13.30
2019-04-21T07:12:08.861Z,13.50
2019-04-21T07:14:55.877Z,13.70
2019-04-21T07:17:15.638Z,13.80
2019-04-21T07:19:46.123Z,13.90
2019-04-21T07:22:12.626Z,14.10
2019-04-21T07:24:43.339Z,14.20
2019-04-21T07:27:19.008Z,14.30
2019-04-21T07:29:47.468Z,14.40
2019-04-21T07:32:15.268Z,14.60
2019-04-21T07:34:47.629Z,14.70
2019-04-21T07:37:20.780Z,14.90
2019-04-21T07:39:43.888Z,15.00
2019-04-21T07:42:13.732Z,15.20
2019-04-21T07:44:46.013Z,15.30
2019-04-21T07:47:22.813Z,15.40
2019-04-21T07:50:00.416Z,15.60
2019-04-21T07:52:42.638Z,15.70
2019-04-21T07:55:18.621Z,15.90
2019-04-21T07:57:36.842Z,16.10
2019-04-21T08:00:21.287Z,16.30
2019-04-21T08:02:47.685Z,16.50
2019-04-21T08:05:23.863Z,16.70
2019-04-21T08:10:10.498Z,17.00
2019-04-21T08:12:41.990Z,17.10
2019-04-21T08:15:23.536Z,17.20
2019-04-21T08:17:47.255Z,17.30
2019-04-21T08:20:19.891Z,17.40
2019-04-21T08:22:51.055Z,17.60
2019-04-21T08:25:19.340Z,17.70
2019-04-21T08:28:04.970Z,17.80
2019-04-21T08:30:28.905Z,18.00
2019-04-21T08:33:02.365Z,18.10
2019-04-21T08:37:54.740Z,18.40
2019-04-21T08:40:31.582Z,18.50
2019-04-21T08:42:55.094Z,18.60
2019-04-21T08:45:28.143Z,18.70
2019-04-21T08:48:02.183Z,18.80
2019-04-21T08:50:45.973Z,19.00
2019-04-21T08:53:03.878Z,19.10
2019-04-21T08:55:58.694Z,19.30
2019-04-21T08:58:34.513Z,19.40
2019-04-21T09:01:19.137Z,19.60
2019-04-21T09:03:56.031Z,19.80
2019-04-21T09:06:40.287Z,19.90
2019-04-21T09:08:58.923Z,20.00
2019-04-21T09:11:22.223Z,20.00
2019-04-21T09:13:57.233Z,20.10
2019-04-21T09:16:27.831Z,20.20
2019-04-21T09:18:53.770Z,20.30
2019-04-21T09:21:35.499Z,20.30
2019-04-21T09:24:10.267Z,20.40
2019-04-21T09:26:29.395Z,20.40
2019-04-21T09:28:57.125Z,20.50
2019-04-21T09:31:17.972Z,20.60
2019-04-21T09:33:50.762Z,20.80
2019-04-21T09:36:20.162Z,20.80
2019-04-21T09:38:56.086Z,20.90
2019-04-21T09:41:23.767Z,21.00
2019-04-21T09:43:52.724Z,21.00
2019-04-21T09:46:20.914Z,21.10
2019-04-21T09:48:57.172Z,21.20
2019-04-21T09:51:21.872Z,21.20
2019-04-21T09:53:58.763Z,21.30
2019-04-21T09:56:31.548Z,21.40
2019-04-21T09:59:05.549Z,21.50
2019-04-21T10:01:30.944Z,21.60
2019-04-21T10:03:59.742Z,21.70
2019-04-21T10:06:26.090Z,21.80
2019-04-21T10:09:01.482Z,21.80
2019-04-21T10:11:26.913Z,21.90
2019-04-21T10:13:56.006Z,21.90
2019-04-21T10:16:34.378Z,22.10
2019-04-21T10:19:04.598Z,22.20
2019-04-21T10:21:33.943Z,22.30
2019-04-21T10:24:04.171Z,22.40
2019-04-21T10:26:33.727Z,22.50
2019-04-21T10:29:08.174Z,22.50
2019-04-21T10:31:34.540Z,22.50
2019-04-21T10:34:05.186Z,22.60
2019-04-21T10:36:35.137Z,22.70
2019-04-21T10:39:06.101Z,22.90
2019-04-21T10:41:35.555Z,23.00
2019-04-21T10:44:05.098Z,23.10
2019-04-21T10:46:35.011Z,23.20
2019-04-21T10:49:04.481Z,23.30
2019-04-21T10:51:35.005Z,23.50
2019-04-21T10:54:04.187Z,23.50
2019-04-21T10:56:37.991Z,23.60
2019-04-21T10:59:04.509Z,23.70
2019-04-21T11:01:34.649Z,23.80
2019-04-21T11:04:25.366Z,23.90
2019-04-21T11:06:51.064Z,24.00
2019-04-21T11:09:20.303Z,24.10
2019-04-21T11:11:51.566Z,24.10
2019-04-21T11:14:21.106Z,24.10
2019-04-21T11:16:52.882Z,24.20
2019-04-21T11:19:22.034Z,24.30
2019-04-21T11:21:52.478Z,24.40
2019-04-21T11:24:22.931Z,24.40
2019-04-21T11:26:52.123Z,24.60
2019-04-21T11:29:21.342Z,24.70
2019-04-21T11:31:52.942Z,24.70
2019-04-21T11:34:22.991Z,24.80
2019-04-21T11:36:52.653Z,24.90
2019-04-21T11:39:39.203Z,25.00
2019-04-21T11:42:01.736Z,25.10
2019-04-21T11:44:31.069Z,25.20
2019-04-21T11:47:00.544Z,25.30
2019-04-21T11:49:32.276Z,25.30
2019-04-21T11:52:00.786Z,25.40
2019-04-21T11:54:30.991Z,25.40
2019-04-21T11:57:03.373Z,25.40
2019-04-21T11:59:31.265Z,25.40
2019-04-21T12:02:01.467Z,25.50
2019-04-21T12:04:31.606Z,25.50
2019-04-21T12:07:01.880Z,25.60
2019-04-21T12:09:31.132Z,25.70
2019-04-21T12:12:01.236Z,25.80
2019-04-21T12:14:30.408Z,25.90
2019-04-21T12:16:59.587Z,26.00
2019-04-21T12:19:28.697Z,26.00
2019-04-21T12:22:08.071Z,26.20
2019-04-21T12:24:32.765Z,26.20
2019-04-21T12:27:02.265Z,26.30
2019-04-21T12:29:31.675Z,26.40
2019-04-21T12:32:20.138Z,26.50
2019-04-21T12:34:51.748Z,26.50
2019-04-21T12:37:20.619Z,26.60
2019-04-21T12:39:50.547Z,26.60
2019-04-21T12:42:20.752Z,26.60
2019-04-21T12:44:51.608Z,26.70
2019-04-21T12:47:21.736Z,26.80
2019-04-21T12:49:52.018Z,26.80
2019-04-21T12:52:21.867Z,26.80
2019-04-21T12:54:51.452Z,26.90
2019-04-21T12:57:21.403Z,26.90
2019-04-21T12:59:50.958Z,27.00
2019-04-21T13:02:20.069Z,27.00
2019-04-21T13:04:50.611Z,27.10
2019-04-21T13:07:21.516Z,27.20
2019-04-21T13:09:50.770Z,27.20
2019-04-21T13:12:19.963Z,27.30
2019-04-21T13:14:49.636Z,27.40
2019-04-21T13:17:19.474Z,27.40
2019-04-21T13:19:49.526Z,27.50
2019-04-21T13:22:18.466Z,27.40
2019-04-21T13:24:47.743Z,27.40
2019-04-21T13:27:17.776Z,27.40
2019-04-21T13:29:48.194Z,27.40
2019-04-21T13:32:18.174Z,27.40
2019-04-21T13:34:47.825Z,27.30
2019-04-21T13:37:17.584Z,27.20
2019-04-21T13:40:24.878Z,27.20
2019-04-21T13:42:41.988Z,27.20
2019-04-21T13:45:08.126Z,27.20
2019-04-21T13:47:38.684Z,27.20
2019-04-21T13:50:08.818Z,27.30
2019-04-21T13:52:38.543Z,27.30
2019-04-21T13:55:09.600Z,27.30
2019-04-21T13:57:38.979Z,27.40
2019-04-21T14:00:10.897Z,27.50
2019-04-21T14:02:40.768Z,27.50
2019-04-21T14:05:11.907Z,27.70
2019-04-21T14:07:41.981Z,27.70
2019-04-21T14:10:14.144Z,27.70
2019-04-21T14:12:44.651Z,27.70
2019-04-21T14:15:14.647Z,27.60
2019-04-21T14:17:44.664Z,27.60
2019-04-21T14:20:13.715Z,27.50
2019-04-21T14:22:44.227Z,27.50
2019-04-21T14:25:15.131Z,27.60
2019-04-21T14:27:47.000Z,27.60
2019-04-21T14:30:16.536Z,27.70
2019-04-21T14:32:49.840Z,27.70
2019-04-21T14:35:20.989Z,27.80
2019-04-21T14:37:50.735Z,28.00
2019-04-21T14:40:24.328Z,28.10
2019-04-21T14:42:52.139Z,28.20
2019-04-21T14:45:30.140Z,28.30
2019-04-21T14:48:25.309Z,28.40
2019-04-21T14:51:13.606Z,28.40
2019-04-21T14:54:01.524Z,28.50
2019-04-21T14:56:31.304Z,28.50
2019-04-21T14:59:01.343Z,28.70
2019-04-21T15:01:31.553Z,28.70
2019-04-21T15:04:01.632Z,28.80
2019-04-21T15:06:31.535Z,28.70
2019-04-21T15:09:00.941Z,28.70
2019-04-21T15:11:29.984Z,28.80
2019-04-21T15:13:59.770Z,28.80
2019-04-21T15:16:29.093Z,28.80
2019-04-21T15:18:59.027Z,28.80
2019-04-21T15:21:29.099Z,28.80
2019-04-21T15:23:58.258Z,28.80
2019-04-21T15:26:28.447Z,29.00
2019-04-21T15:28:57.495Z,29.00
2019-04-21T15:31:30.530Z,28.90
2019-04-21T15:33:57.269Z,28.90
2019-04-21T15:36:27.245Z,28.90
2019-04-21T15:38:56.489Z,28.90
2019-04-21T15:41:26.776Z,28.80
2019-04-21T15:43:57.292Z,28.70
2019-04-21T15:46:27.033Z,28.70
2019-04-21T15:48:57.114Z,28.60
2019-04-21T15:51:26.392Z,28.60
2019-04-21T15:53:55.737Z,28.60
2019-04-21T15:56:56.558Z,28.50
2019-04-21T15:59:44.825Z,28.50
2019-04-21T16:02:32.763Z,28.50
2019-04-21T16:05:04.726Z,28.30
2019-04-21T16:07:34.059Z,28.00
2019-04-21T16:10:06.548Z,27.80
2019-04-21T16:12:33.963Z,27.60
2019-04-21T16:15:03.135Z,27.50
2019-04-21T16:17:32.991Z,27.30
2019-04-21T16:20:04.001Z,27.20
2019-04-21T16:22:33.080Z,26.90
2019-04-21T16:25:03.330Z,26.80
2019-04-21T16:27:33.208Z,26.70
2019-04-21T16:30:03.801Z,26.60
2019-04-21T16:32:34.277Z,26.50
2019-04-21T16:35:08.633Z,26.30
2019-04-21T16:37:35.431Z,26.10
2019-04-21T16:40:05.338Z,25.90
2019-04-21T16:42:34.408Z,25.70
2019-04-21T16:45:04.749Z,25.50
2019-04-21T16:47:33.960Z,25.40
2019-04-21T16:50:03.551Z,25.20
2019-04-21T16:52:40.685Z,25.10
2019-04-21T16:55:23.216Z,24.90
2019-04-21T16:58:06.805Z,24.80
2019-04-21T17:00:38.773Z,24.60
2019-04-21T17:02:58.863Z,24.40
2019-04-21T17:05:28.076Z,24.20
2019-04-21T17:07:57.763Z,24.10
2019-04-21T17:10:26.888Z,24.10
2019-04-21T17:12:59.899Z,23.90
2019-04-21T17:15:51.203Z,23.80
2019-04-21T17:18:13.513Z,23.70
2019-04-21T17:20:41.144Z,23.60
2019-04-21T17:23:01.793Z,23.50
2019-04-21T17:25:32.015Z,23.40
2019-04-21T17:28:01.620Z,23.40
2019-04-21T17:30:30.847Z,23.30
2019-04-21T17:33:01.382Z,23.20
2019-04-21T17:35:31.171Z,23.10
2019-04-21T17:38:01.636Z,23.00
2019-04-21T17:40:31.608Z,22.90
2019-04-21T17:43:05.562Z,22.80
2019-04-21T17:45:33.026Z,22.70
2019-04-21T17:48:06.586Z,22.70
2019-04-21T17:50:59.310Z,22.60
2019-04-21T17:53:40.259Z,22.50
2019-04-21T17:56:23.484Z,22.40
2019-04-21T17:59:01.703Z,22.30
2019-04-21T18:01:32.027Z,22.20
2019-04-21T18:04:04.940Z,22.20
2019-04-21T18:06:39.765Z,22.10
2019-04-21T18:09:22.324Z,22.00
2019-04-21T18:11:49.289Z,21.90
2019-04-21T18:13:57.536Z,21.80
2019-04-21T18:16:34.204Z,21.70
2019-04-21T18:18:57.496Z,21.70
2019-04-21T18:21:40.190Z,21.60
2019-04-21T18:24:15.667Z,21.50
2019-04-21T18:26:49.573Z,21.40
2019-04-21T18:29:11.785Z,21.40
2019-04-21T18:31:48.047Z,21.30
2019-04-21T18:34:30.565Z,21.30
2019-04-21T18:37:08.061Z,21.20
2019-04-21T18:40:01.533Z,21.10
2019-04-21T18:42:55.549Z,21.00
2019-04-21T18:45:55.279Z,20.90
2019-04-21T18:48:31.615Z,20.80
2019-04-21T18:51:19.080Z,20.70
2019-04-21T18:54:14.844Z,20.60
2019-04-21T18:56:27.634Z,20.50
2019-04-21T18:58:58.242Z,20.40
2019-04-21T19:01:31.391Z,20.30
2019-04-21T19:04:00.310Z,20.20
2019-04-21T19:06:45.476Z,20.10
2019-04-21T19:09:15.041Z,20.00
2019-04-21T19:11:53.457Z,19.90
2019-04-21T19:14:35.547Z,19.90
2019-04-21T19:17:13.767Z,19.80
2019-04-21T19:22:00.025Z,19.60
2019-04-21T19:24:43.151Z,19.60
2019-04-21T19:26:58.776Z,19.50
2019-04-21T19:29:45.775Z,19.40
2019-04-21T19:32:13.773Z,19.30
2019-04-21T19:34:18.468Z,19.30
2019-04-21T19:36:49.561Z,19.20
2019-04-21T19:39:25.932Z,19.10
2019-04-21T19:41:56.169Z,18.90
2019-04-21T19:44:36.978Z,18.80
2019-04-21T19:47:04.754Z,18.70
2019-04-21T19:49:41.894Z,18.60
2019-04-21T19:51:57.498Z,18.50
2019-04-21T19:54:25.171Z,18.40
2019-04-21T19:56:49.035Z,18.30
2019-04-21T19:59:24.764Z,18.20
2019-04-21T20:01:51.243Z,18.10
2019-04-21T20:04:20.139Z,18.00
2019-04-21T20:07:01.125Z,17.90
2019-04-21T20:09:37.056Z,17.80
2019-04-21T20:12:06.410Z,17.70
2019-04-21T20:17:05.230Z,17.60
2019-04-21T20:19:24.390Z,17.50
2019-04-21T20:21:54.087Z,17.40
2019-04-21T20:24:27.978Z,17.30
2019-04-21T20:27:04.746Z,17.30
2019-04-21T20:29:46.607Z,17.20
2019-04-21T20:32:20.015Z,17.10
2019-04-21T20:34:46.176Z,17.00
2019-04-21T20:37:14.494Z,16.90
2019-04-21T20:39:35.091Z,16.80
2019-04-21T20:42:15.628Z,16.70
2019-04-21T20:44:48.354Z,16.70
2019-04-21T20:47:13.127Z,16.60
2019-04-21T20:49:38.516Z,16.50
2019-04-21T20:52:24.334Z,16.40
2019-04-21T20:54:50.256Z,16.30
2019-04-21T20:57:24.186Z,16.20
2019-04-21T20:59:44.417Z,16.20
2019-04-21T21:02:21.983Z,16.10
2019-04-21T21:04:42.458Z,16.00
2019-04-21T21:07:36.717Z,15.90
2019-04-21T21:10:00.508Z,15.80
2019-04-21T21:14:52.987Z,15.70
2019-04-21T21:17:39.220Z,15.60
2019-04-21T21:19:59.706Z,15.50
2019-04-21T21:22:29.415Z,15.50
2019-04-21T21:24:55.748Z,15.40
2019-04-21T21:27:26.738Z,15.30
2019-04-21T21:30:04.813Z,15.30
2019-04-21T21:32:32.018Z,15.20
2019-04-21T21:35:03.574Z,15.10
2019-04-21T21:37:36.257Z,15.10
2019-04-21T21:40:08.293Z,15.00
2019-04-21T21:42:25.299Z,14.90
2019-04-21T21:44:58.550Z,14.90
2019-04-21T21:47:30.387Z,14.80
2019-04-21T21:50:00.793Z,14.70
2019-04-21T21:52:35.367Z,14.60
2019-04-21T21:54:51.890Z,14.50
2019-04-21T21:57:21.063Z,14.40
2019-04-21T21:59:52.914Z,14.40
2019-04-21T22:02:31.911Z,14.40
2019-04-21T22:05:01.079Z,14.30
2019-04-21T22:07:28.076Z,14.30
2019-04-21T22:09:54.587Z,14.20
2019-04-21T22:12:23.924Z,14.10
2019-04-21T22:14:55.472Z,14.10
2019-04-21T22:17:41.895Z,14.00
2019-04-21T22:20:17.079Z,14.00
2019-04-21T22:22:41.515Z,14.00
2019-04-21T22:25:07.889Z,14.00
2019-04-21T22:27:27.676Z,14.00
2019-04-21T22:29:59.818Z,14.10
2019-04-21T22:32:29.469Z,14.10
2019-04-21T22:35:02.006Z,14.20
2019-04-21T22:37:41.563Z,14.30
2019-04-21T22:40:13.787Z,14.30
2019-04-21T22:42:34.908Z,14.30
2019-04-21T22:45:01.947Z,14.40
2019-04-21T22:47:34.548Z,14.40
2019-04-21T22:50:02.635Z,14.40
2019-04-21T22:52:32.360Z,14.40
2019-04-21T22:55:08.267Z,14.40
2019-04-21T22:57:41.710Z,14.50
2019-04-21T23:00:10.749Z,14.40
2019-04-21T23:02:38.554Z,14.50
2019-04-21T23:05:08.064Z,14.50
2019-04-21T23:07:44.265Z,14.50
2019-04-21T23:10:11.489Z,14.50
2019-04-21T23:12:43.470Z,14.50
2019-04-21T23:15:17.102Z,14.50
2019-04-21T23:18:02.169Z,14.50
2019-04-21T23:20:34.576Z,14.50
2019-04-21T23:23:11.765Z,14.60
2019-04-21T23:25:32.113Z,14.50
2019-04-21T23:28:08.859Z,14.50
2019-04-21T23:30:44.766Z,14.50
2019-04-21T23:32:57.039Z,14.50
2019-04-21T23:35:28.948Z,14.40
2019-04-21T23:37:57.692Z,14.40
2019-04-21T23:40:24.161Z,14.40
2019-04-21T23:42:53.285Z,14.40
2019-04-21T23:45:25.110Z,14.40
2019-04-21T23:48:08.019Z,14.40
2019-04-21T23:50:35.215Z,14.40
2019-04-21T23:52:55.480Z,14.40
2019-04-21T23:55:25.321Z,14.40
2019-04-21T23:58:04.959Z,14.40
